Startpagina
METAR-TAF:

METAR-TAF

Vliegvelden :

Memmingen, Duitsland

breedte: 47-59-33N, lengte: 10-14-37E, hoogte: 633 m

Actueel weer

Dit bericht is 18 minuten geleden gemaakt, om 22:20 UTC
Wind 18 kt uit het westzuidwesten
Temperatuur 13°C
Vochtigheid 72%
Druk 1004 hPa
Zicht 10 km of meer

METAR: EDJA 052220Z AUTO 24018KT 9999 FEW027/// BKN038/// BKN120/// 13/08 Q1004

Tijdstip: 00:38 (22:38 UTC)

Verwachting

Dit bericht is 2 uur en het 37 minuten geleden gemaakt, om 20:01 UTC
Verwachting geldig van 05 om 21 UTC tot 06 om 06 UTC
Wind 15 kt uit het westzuidwesten met uitschieters tot 25 kt
Zicht 10 km of meer
Verspreide wolken op 5000 ft
Wijzigt naar
van 06 om 00 UTC tot 06 om 02 UTC
Wind 12 kt uit het westzuidwesten

TAF: EDJA 052001Z 0521/0606 24015G25KT 9999 SCT050 BECMG 0600/0602 24012KT

Waarnemingen en weersverwachtingen van meer dan 4000 vliegvelden (METAR en TAF).

De beschikbare stations zijn de gele en rode punten op de kaart.

Ga met uw muis naar het station om de naam te zien.

Klik dan om waarnemingen en weersverwachtingen te zien.

kaart wijzigen: klik op de groene knoppen met een zwart kruis om in te zoomen, op de groene knop met een streepje om uit te zoomen of op de groene pijlen voor aangrenzende kaarten.


METAR-TAF: